• Join FlightAware (Why Join?)
  • Login
  • US Flag 
11:53AM EDT


 

Airport Tracker/Info


-or-


 

Live Flight TrackerFlight Track Log ✈ UPS1336 ✈ 09-May-2013 ✈ KSDF - KMIA

Flight Track Log - Related Links

Times and Time Zones

All times are in EDT time to prevent confusion due to time zone crossing. See the UPS1336 flight status page for this flight to view local times or setup timezone preferences in your user account.

Time Position Orientation Groundspeed Altitude Reporting Facility
EDT Latitude Longitude Course Direction KTS MPH feet Rate Location/Type
02:58AM 38.1790 -85.7290 90° East 124 143 500  Level FlightAware
02:59AM 38.1630 -85.7220 161° South 152 175 2,200 3,600 Climbing FlightAware
02:59AM 38.1520 -85.7180 164° South 158 182 2,900 2,400 Climbing FlightAware
02:59AM 38.1320 -85.7130 169° South 194 223 3,800 2,400 Climbing FlightAware
03:00AM 38.1040 -85.7040 166° South 234 269 5,100 2,760 Climbing FlightAware
03:00AM 38.0710 -85.6920 164° South 270 311 6,600 3,180 Climbing FlightAware
03:01AM 38.0520 -85.6780 150° Southeast 284 327 7,500 3,780 Climbing FlightAware
03:01AM 38.0370 -85.6630 142° Southeast 289 333 8,500 3,900 Climbing FlightAware
03:02AM 37.9940 -85.6210 142° Southeast 304 350 11,100 3,000 Climbing FlightAware
03:02AM 37.9380 -85.5880 155° Southeast 361 415 12,500 2,700 Climbing FlightAware
03:03AM 37.8630 -85.5500 158° South 389 448 15,000 2,640 Climbing FlightAware
03:04AM 37.7930 -85.5140 158° South 430 495 16,300 2,160 Climbing FlightAware
03:04AM 37.7140 -85.4750 159° South 459 528 17,900 2,700 Climbing FlightAware
03:05AM 37.6270 -85.4310 158° South 466 536 20,200 2,880 Climbing FlightAware
03:06AM 37.5340 -85.3840 158° South 477 549 22,300 2,520 Climbing FlightAware
03:07AM 37.4520 -85.3430 158° South 489 563 23,800 2,160 Climbing FlightAware
03:07AM 37.3871 -85.3106 158° South 499 574 24,800 2,040 Climbing FlightAware ADS-B
03:08AM 37.3127 -85.2735 158° South 508 585 26,000 1,920 Climbing FlightAware ADS-B
03:08AM 37.2445 -85.2395 158° South 519 597 26,900 1,560 Climbing FlightAware ADS-B
03:09AM 37.1738 -85.2043 158° South 528 608 27,700 1,800 Climbing FlightAware ADS-B
03:09AM 37.1047 -85.1700 158° South 528 608 28,800 2,280 Climbing FlightAware ADS-B
03:10AM 37.0366 -85.1364 159° South 529 609 30,000 2,280 Climbing FlightAware ADS-B
03:10AM 36.9503 -85.0938 158° South 528 608 31,400 2,100 Climbing FlightAware ADS-B
03:11AM 36.8822 -85.0602 158° South 529 609 32,400 1,920 Climbing FlightAware ADS-B
03:11AM 36.8111 -85.0254 159° South 531 611 33,400 1,860 Climbing FlightAware ADS-B
03:12AM 36.7389 -84.9900 159° South 531 611 34,400 1,920 Climbing FlightAware ADS-B
03:12AM 36.6665 -84.9547 159° South 527 606 35,500 1,920 Climbing FlightAware ADS-B
03:13AM 36.5981 -84.9213 159° South 521 600 36,400 1,440 Climbing FlightAware ADS-B
03:13AM 36.5288 -84.8876 159° South 519 597 37,000 540 Climbing FlightAware ADS-B
03:14AM 36.4597 -84.8539 159° South 516 594 37,000  Level FlightAware ADS-B
03:14AM 36.3923 -84.8211 159° South 515 593 37,000  Level FlightAware ADS-B
03:15AM 36.3214 -84.7867 159° South 514 592 37,000  Level FlightAware ADS-B
03:15AM 36.2544 -84.7544 159° South 515 593 37,000  Level FlightAware ADS-B
03:16AM 36.1850 -84.7211 159° South 515 593 37,000  Level FlightAware ADS-B
03:16AM 36.1178 -84.6888 159° South 516 594 37,000  Level FlightAware ADS-B
03:17AM 36.0496 -84.6562 159° South 517 595 37,000  Level FlightAware ADS-B
03:17AM 35.9805 -84.6232 159° South 517 595 37,000  Level FlightAware ADS-B
03:18AM 35.9131 -84.5911 159° South 516 594 37,000  Level FlightAware ADS-B
03:18AM 35.8458 -84.5589 159° South 516 594 37,000  Level FlightAware ADS-B
03:19AM 35.7711 -84.5233 159° South 515 593 37,000  Level FlightAware ADS-B
03:20AM 35.7030 -84.4908 159° South 514 592 37,000  Level FlightAware ADS-B
03:20AM 35.6320 -84.4570 159° South 513 590 37,000  Level FlightAware ADS-B
03:21AM 35.5654 -84.4254 159° South 514 592 37,000  Level FlightAware ADS-B
03:21AM 35.4980 -84.3933 159° South 513 590 37,000  Level FlightAware ADS-B
03:22AM 35.4309 -84.3616 159° South 513 590 37,000  Level FlightAware ADS-B
03:22AM 35.3638 -84.3299 159° South 514 592 37,000  Level FlightAware ADS-B
03:23AM 35.2963 -84.2980 159° South 514 592 37,000  Level FlightAware ADS-B
03:23AM 35.2241 -84.2641 159° South 515 593 37,000  Level FlightAware ADS-B
03:24AM 35.1555 -84.2320 159° South 515 593 37,000  Level FlightAware ADS-B
03:24AM 35.0878 -84.2002 159° South 515 593 37,000  Level FlightAware ADS-B
03:25AM 34.9750 -84.1477 159° South 515 593 37,000  Level FlightAware ADS-B
03:26AM 34.9075 -84.1164 159° South 516 594 37,000  Level FlightAware ADS-B
03:26AM 34.8387 -84.0843 159° South 517 595 37,000  Level FlightAware ADS-B
03:27AM 34.7710 -84.0529 159° South 517 595 37,000  Level FlightAware ADS-B
03:27AM 34.7037 -84.0217 159° South 518 596 37,000  Level FlightAware ADS-B
03:28AM 34.6341 -83.9894 159° South 518 596 37,000  Level FlightAware ADS-B
03:28AM 34.5650 -83.9572 159° South 519 597 37,000  Level FlightAware ADS-B
03:29AM 34.4962 -83.9254 159° South 519 597 37,000  Level FlightAware ADS-B
03:29AM 34.4288 -83.8943 159° South 519 597 37,000  Level FlightAware ADS-B
03:30AM 34.3608 -83.8631 159° South 520 598 37,000  Level FlightAware ADS-B
03:30AM 34.2919 -83.8314 159° South 520 598 37,000  Level FlightAware ADS-B
03:31AM 34.2241 -83.8002 159° South 519 597 37,000  Level FlightAware ADS-B
03:31AM 34.1562 -83.7691 159° South 519 597 37,000  Level FlightAware ADS-B
03:32AM 34.0869 -83.7374 159° South 520 598 37,000  Level FlightAware ADS-B
03:32AM 34.0154 -83.7047 159° South 522 601 37,000  Level FlightAware ADS-B
03:33AM 33.9326 -83.6671 159° South 523 602 37,000  Level FlightAware ADS-B
03:33AM 33.8574 -83.6329 159° South 522 601 37,000  Level FlightAware ADS-B
03:34AM 33.7660 -83.5910 159° South 515 593 37,000  Level FlightAware
03:35AM 33.6700 -83.5480 160° South 515 593 37,000  Level FlightAware
03:35AM 33.5730 -83.5040 159° South 514 592 37,000  Level FlightAware
03:36AM 33.4860 -83.4650 159° South 513 590 37,000  Level FlightAware
03:37AM 33.3820 -83.4180 159° South 513 590 37,000  Level FlightAware
03:37AM 33.3090 -83.3860 160° South 514 592 37,000  Level FlightAware
03:38AM 33.1880 -83.3320 160° South 523 602 37,000  Level FlightAware
03:39AM 33.1010 -83.2930 159° South 524 603 37,000  Level FlightAware
03:40AM 33.0030 -83.2500 160° South 526 605 37,000  Level FlightAware
03:40AM 32.9240 -83.2140 159° South 526 605 37,000  Level FlightAware
03:41AM 32.8220 -83.1690 160° South 518 596 37,000  Level FlightAware
03:42AM 32.7290 -83.1270 159° South 518 596 37,000  Level FlightAware
03:42AM 32.6530 -83.0920 159° South 518 596 37,000  Level FlightAware
03:43AM 32.5770 -83.0570 159° South 518 596 37,000  Level FlightAware
03:44AM 32.4672 -83.0158 159° South 524 603 37,000  Level Jacksonville Center
03:45AM 32.3272 -82.9517 159° South 530 610 37,000  Level Jacksonville Center
03:46AM 32.2042 -82.9000 160° South 530 610 37,000  Level Jacksonville Center
03:47AM 32.0664 -82.8361 159° South 525 604 37,000  Level Jacksonville Center
03:48AM 31.9306 -82.7775 160° South 525 604 37,000  Level Jacksonville Center
03:49AM 31.7928 -82.7189 160° South 525 604 37,000  Level Jacksonville Center
03:50AM 31.6547 -82.6583 160° South 525 604 37,000  Level Jacksonville Center
03:51AM 31.5253 -82.6025 160° South 525 604 37,000  Level Jacksonville Center
03:52AM 31.3956 -82.5469 160° South 514 592 37,000  Level Jacksonville Center
03:53AM 31.2536 -82.4892 161° South 501 577 37,000  Level Jacksonville Center
03:54AM 31.1258 -82.4339 160° South 495 570 37,000  Level Jacksonville Center
03:55AM 30.9964 -82.3789 160° South 495 570 37,000  Level Jacksonville Center
04:00AM 30.2450 -82.0610 160° South 479 551 37,000  Level FlightAware
04:01AM 30.1740 -82.0310 160° South 479 551 37,000  Level FlightAware
04:02AM 30.0780 -81.9920 161° South 478 550 37,000  Level FlightAware
04:03AM 29.9810 -81.9530 161° South 487 560 37,000  Level FlightAware
04:03AM 29.8990 -81.9190 160° South 495 570 37,000  Level FlightAware
04:04AM 29.8040 -81.8800 160° South 501 577 37,000  Level FlightAware
04:05AM 29.7240 -81.8470 160° South 504 580 37,000  Level FlightAware
04:05AM 29.6110 -81.8010 161° South 496 571 37,000  Level FlightAware
04:06AM 29.5280 -81.7660 160° South 481 554 37,000  Level FlightAware
04:07AM 29.4410 -81.7310 161° South 481 554 37,000  Level FlightAware
04:07AM 29.3770 -81.7040 160° South 481 554 37,000  Level FlightAware
04:08AM 29.2620 -81.6570 160° South 488 562 37,000  Level FlightAware
04:09AM 29.1900 -81.6280 161° South 489 563 37,000  Level FlightAware
04:09AM 29.0890 -81.5860 160° South 492 566 37,000  Level FlightAware
04:10AM 28.9940 -81.5470 160° South 491 565 37,000  Level FlightAware
04:11AM 28.8970 -81.5080 161° South 480 552 37,000  Level FlightAware
04:12AM 28.8100 -81.4720 160° South 479 551 37,000  Level FlightAware
04:12AM 28.7270 -81.4390 161° South 477 549 37,000  Level FlightAware
04:13AM 28.6410 -81.4040 160° South 477 549 37,000  Level FlightAware
04:14AM 28.5450 -81.3660 161° South 477 549 37,000  Level FlightAware
04:14AM 28.4530 -81.3290 161° South 478 550 37,000  Level FlightAware
04:15AM 28.3660 -81.2940 161° South 479 551 37,000  Level FlightAware
04:16AM 28.2830 -81.2610 161° South 480 552 37,000  Level FlightAware
04:17AM 28.1860 -81.2220 160° South 481 554 37,000  Level FlightAware
04:17AM 28.1010 -81.1880 161° South 481 554 37,000  Level FlightAware
04:18AM 28.0140 -81.1540 161° South 482 555 37,000  Level FlightAware
04:19AM 27.9200 -81.1160 160° South 491 565 37,000  Level FlightAware
04:19AM 27.8360 -81.0820 160° South 490 564 37,000  Level FlightAware
04:20AM 27.7490 -81.0480 161° South 491 565 37,000  Level FlightAware
04:21AM 27.6500 -81.0090 161° South 490 564 37,000  Level FlightAware
04:21AM 27.5640 -80.9740 160° South 482 555 37,000  Level FlightAware
04:22AM 27.4700 -80.9370 161° South 480 552 37,000  Level FlightAware
04:23AM 27.3940 -80.9070 161° South 477 549 37,000 -2,040 Level FlightAware
04:25AM 27.0790 -80.7830 161° South 494 568 30,600 -3,060 Descending FlightAware
04:26AM 26.9260 -80.7240 161° South 491 565 25,700 -3,840 Descending FlightAware
04:28AM 26.7800 -80.6670 161° South 461 531 21,700 -3,420 Descending FlightAware
04:29AM 26.6330 -80.6100 161° South 439 505 17,500 -3,420 Descending FlightAware
04:30AM 26.5460 -80.5770 161° South 422 486 15,200 -3,300 Descending FlightAware
04:30AM 26.4630 -80.5450 161° South 409 471 12,900 -2,880 Descending FlightAware
04:31AM 26.3900 -80.5170 161° South 389 448 11,200 -1,500 Descending FlightAware
04:32AM 26.3170 -80.4900 162° South 344 396 10,800 -300 Descending FlightAware
04:32AM 26.2600 -80.4690 162° South 304 350 10,800  Level FlightAware
04:33AM 26.2020 -80.4460 160° South 286 329 10,800  Level FlightAware
04:34AM 26.1510 -80.4250 160° South 287 330 10,800 -720 Level FlightAware
04:34AM 26.1070 -80.3890 144° Southeast 288 331 9,900 -1,440 Descending FlightAware
04:35AM 26.0920 -80.3760 142° Southeast 289 333 9,500 -1,500 Descending FlightAware
04:35AM 26.0650 -80.3530 143° Southeast 286 329 8,900 -1,860 Descending FlightAware
04:36AM 26.0330 -80.3260 143° Southeast 268 308 7,800 -2,220 Descending FlightAware
04:36AM 26.0100 -80.3060 142° Southeast 266 306 6,900 -2,400 Descending FlightAware
04:37AM 25.9350 -80.2440 143° Southeast 250 288 3,800 -1,980 Descending FlightAware
04:38AM 25.8710 -80.1940 145° Southeast 219 252 2,200 -1,320 Descending FlightAware
04:39AM 25.8670 -80.1910 146° Southeast 216 249 2,200 -720 Level FlightAware
04:40AM 25.8140 -80.1790 168° South 158 182 1,400 -720 Descending FlightAware
04:40AM 25.8110 -80.1820 222° Southwest 149 171 1,400 -600 Level FlightAware
04:41AM 25.8040 -80.2330 261° West 119 137 600 -660 Descending FlightAware
04:42AM 25.8030 -80.2520 267° West 117 135 200 -840 Descending FlightAware
04:42AM 25.8020 -80.2670 266° West 116 133 -480 Descending FlightAware